Tiangang, China
Current Conditions -  °F | °C
As of 5:00 PM on Saturday 20 Dec 2014 (Local Time) from ZYCC Reporting Station
Haze Haze  
Wind Chill: -4°   Ceiling: Unl
Heat Index: -4°   Visibility: 3mi
Dew Point: -13°   Wind: 2mph
Humidity: 65%   Direction: NA
Pressure: 30.24"   Gusts: NA
Location:  43.88°N, 126.95°E
Report Text: ZYCC 200900Z VRB01MPS 5000 BR NSC M20/M25 Q1024 NOSIG
Loading
Personal Weather Stations






























Interactive Weather Map New forecast layout! Learn more

10-Day Weather Forecast

Advertisements
Track Severe Weather on mobile